createdAt,value
2022-10-10T00:01:38.690Z,46.13
2022-10-10T00:04:08.922Z,51.47
2022-10-10T00:09:07.132Z,48.03
2022-10-10T00:11:36.952Z,55.13
2022-10-10T00:14:06.354Z,39.83
2022-10-10T00:16:34.837Z,42.22
2022-10-10T00:19:03.881Z,51.25
2022-10-10T00:21:34.154Z,46.15
2022-10-10T00:24:03.043Z,55.17
2022-10-10T00:26:32.040Z,48.47
2022-10-10T00:29:00.946Z,50.63
2022-10-10T00:31:29.238Z,52.38
2022-10-10T00:33:57.882Z,47.95
2022-10-10T00:36:26.590Z,41.88
2022-10-10T00:38:56.604Z,43.78
2022-10-10T00:41:26.988Z,54.40
2022-10-10T00:44:10.028Z,40.15
2022-10-10T00:46:39.411Z,46.35
2022-10-10T00:49:10.838Z,43.70
2022-10-10T00:51:39.650Z,47.08
2022-10-10T00:54:11.675Z,55.03
2022-10-10T00:56:42.911Z,51.10
2022-10-10T00:59:12.708Z,51.05
2022-10-10T01:01:41.897Z,54.10
2022-10-10T01:04:34.839Z,44.47
2022-10-10T01:07:06.473Z,51.60
2022-10-10T01:09:37.608Z,47.78
2022-10-10T01:12:17.105Z,53.53
2022-10-10T01:14:49.395Z,53.73
2022-10-10T01:17:22.772Z,46.75
2022-10-10T01:20:44.603Z,52.53
2022-10-10T01:23:35.797Z,51.67
2022-10-10T01:26:19.676Z,54.15
2022-10-10T01:28:52.764Z,56.53
2022-10-10T01:31:24.503Z,47.90
2022-10-10T01:34:02.226Z,52.05
2022-10-10T01:36:35.632Z,54.10
2022-10-10T01:39:08.687Z,57.17
2022-10-10T01:41:41.079Z,49.10
2022-10-10T01:44:11.316Z,47.17
2022-10-10T01:46:39.788Z,54.40
2022-10-10T01:49:08.470Z,49.72
2022-10-10T01:51:49.776Z,51.42
2022-10-10T01:54:28.370Z,51.60
2022-10-10T01:57:04.941Z,51.80
2022-10-10T01:59:42.123Z,52.33
2022-10-10T02:02:16.141Z,50.40
2022-10-10T02:04:50.315Z,58.72
2022-10-10T02:07:23.461Z,55.90
2022-10-10T02:09:53.765Z,58.45
2022-10-10T02:14:53.439Z,61.22
2022-10-10T02:17:22.632Z,62.08
2022-10-10T02:19:54.336Z,67.93
2022-10-10T02:22:23.849Z,58.92
2022-10-10T02:24:53.779Z,58.33
2022-10-10T02:27:27.017Z,61.10
2022-10-10T02:29:58.094Z,62.60
2022-10-10T02:32:30.064Z,59.70
2022-10-10T02:35:09.438Z,57.80
2022-10-10T02:37:38.920Z,58.72
2022-10-10T02:40:10.338Z,58.10
2022-10-10T02:42:39.875Z,58.70
2022-10-10T02:45:10.942Z,68.07
2022-10-10T02:47:39.646Z,68.45
2022-10-10T02:50:09.214Z,63.17
2022-10-10T02:52:37.500Z,56.63
2022-10-10T02:55:07.272Z,65.00
2022-10-10T02:57:35.952Z,61.97
2022-10-10T03:00:05.125Z,62.92
2022-10-10T03:02:35.193Z,61.63
2022-10-10T03:05:05.723Z,58.45
2022-10-10T03:07:34.474Z,64.20
2022-10-10T03:10:03.193Z,62.97
2022-10-10T03:12:31.877Z,59.03
2022-10-10T03:15:00.491Z,61.17
2022-10-10T03:17:29.109Z,60.08
2022-10-10T03:19:59.168Z,65.60
2022-10-10T03:22:27.518Z,60.03
2022-10-10T03:24:56.187Z,63.65
2022-10-10T03:27:24.931Z,65.28
2022-10-10T03:29:53.581Z,54.88
2022-10-10T03:32:22.363Z,51.90
2022-10-10T03:34:50.688Z,53.03
2022-10-10T03:37:20.900Z,52.05
2022-10-10T03:42:18.159Z,47.25
2022-10-10T03:44:46.887Z,49.33
2022-10-10T03:47:15.697Z,45.55
2022-10-10T03:49:43.956Z,52.35
2022-10-10T03:52:12.785Z,48.03
2022-10-10T03:54:42.866Z,48.00
2022-10-10T03:57:11.491Z,51.38
2022-10-10T03:59:40.173Z,42.25
2022-10-10T04:02:08.811Z,41.33
2022-10-10T04:04:37.237Z,46.03
2022-10-10T04:07:05.878Z,40.90
2022-10-10T04:09:34.572Z,46.13
2022-10-10T04:12:05.379Z,46.17
2022-10-10T04:14:34.133Z,41.83
2022-10-10T04:17:03.511Z,45.35
2022-10-10T04:19:31.816Z,37.05
2022-10-10T04:22:00.424Z,39.60
2022-10-10T04:24:29.243Z,42.28
2022-10-10T04:26:58.223Z,40.10
2022-10-10T04:29:28.728Z,39.08
2022-10-10T04:34:28.454Z,31.30
2022-10-10T04:36:57.255Z,41.15
2022-10-10T04:39:26.234Z,35.83
2022-10-10T04:41:54.937Z,43.08
2022-10-10T04:44:23.935Z,36.55
2022-10-10T04:46:53.940Z,32.83
2022-10-10T04:49:23.293Z,44.17
2022-10-10T04:51:52.028Z,42.95
2022-10-10T04:54:20.742Z,30.55
2022-10-10T04:56:49.557Z,47.40
2022-10-10T04:59:18.356Z,45.40
2022-10-10T05:01:46.697Z,49.42
2022-10-10T05:04:16.947Z,44.33
2022-10-10T05:06:45.926Z,40.33
2022-10-10T05:09:14.704Z,39.05
2022-10-10T05:11:43.470Z,42.15
2022-10-10T05:14:12.148Z,43.63
2022-10-10T05:16:40.481Z,43.33
2022-10-10T05:19:09.281Z,42.97
2022-10-10T05:21:39.490Z,41.20
2022-10-10T05:24:08.256Z,42.63
2022-10-10T05:26:42.234Z,39.22
2022-10-10T05:29:11.837Z,42.75
2022-10-10T05:31:40.183Z,48.80
2022-10-10T05:34:08.810Z,43.92
2022-10-10T05:36:37.632Z,44.63
2022-10-10T05:39:07.691Z,36.83
2022-10-10T05:41:36.709Z,41.58
2022-10-10T05:44:05.489Z,40.67
2022-10-10T05:46:33.854Z,41.33
2022-10-10T05:49:02.759Z,33.53
2022-10-10T05:51:31.570Z,36.22
2022-10-10T05:54:00.319Z,36.67
2022-10-10T05:56:31.739Z,41.45
2022-10-10T05:59:00.466Z,37.45
2022-10-10T06:01:28.908Z,31.50
2022-10-10T06:03:57.687Z,31.35
2022-10-10T06:06:27.407Z,28.48
2022-10-10T06:08:56.345Z,34.85
2022-10-10T06:11:26.123Z,30.35
2022-10-10T06:13:57.190Z,32.43
2022-10-10T06:16:27.079Z,31.02
2022-10-10T06:18:57.009Z,36.55
2022-10-10T06:21:26.214Z,32.88
2022-10-10T06:23:54.975Z,24.45
2022-10-10T06:26:24.019Z,23.60
2022-10-10T06:28:52.474Z,35.88
2022-10-10T06:31:22.773Z,27.20
2022-10-10T06:33:53.328Z,15.02
2022-10-10T06:38:50.602Z,24.90
2022-10-10T06:41:19.248Z,22.33
2022-10-10T06:43:49.209Z,21.05
2022-10-10T06:46:18.020Z,21.17
2022-10-10T06:48:48.118Z,29.02
2022-10-10T06:51:17.814Z,18.70
2022-10-10T06:53:47.025Z,18.85
2022-10-10T06:56:26.368Z,22.98
2022-10-10T06:58:56.353Z,22.38
2022-10-10T07:01:26.422Z,24.35
2022-10-10T07:03:56.451Z,23.15
2022-10-10T07:06:25.351Z,23.15
2022-10-10T07:08:54.068Z,22.58
2022-10-10T07:11:22.859Z,30.33
2022-10-10T07:13:53.759Z,23.67
2022-10-10T07:16:23.269Z,31.02
2022-10-10T07:18:52.090Z,21.00
2022-10-10T07:21:22.128Z,24.30
2022-10-10T07:23:50.812Z,20.95
2022-10-10T07:26:22.415Z,22.65
2022-10-10T07:28:51.100Z,20.13
2022-10-10T07:31:19.733Z,20.83
2022-10-10T07:33:50.972Z,20.20
2022-10-10T07:36:21.555Z,18.90
2022-10-10T07:38:52.171Z,20.33
2022-10-10T07:41:21.793Z,16.25
2022-10-10T07:43:51.325Z,22.45
2022-10-10T07:46:21.321Z,14.52
2022-10-10T07:48:50.201Z,16.48
2022-10-10T07:51:21.179Z,16.92
2022-10-10T07:53:49.900Z,14.48
2022-10-10T07:56:18.660Z,14.85
2022-10-10T07:58:46.966Z,14.27
2022-10-10T08:01:15.646Z,14.32
2022-10-10T08:03:44.339Z,15.10
2022-10-10T08:06:14.376Z,15.57
2022-10-10T08:08:51.215Z,12.82
2022-10-10T08:11:22.431Z,17.63
2022-10-10T08:13:51.320Z,14.70
2022-10-10T08:16:20.516Z,10.50
2022-10-10T08:18:49.350Z,17.13
2022-10-10T08:21:18.814Z,11.90
2022-10-10T08:23:48.985Z,13.53
2022-10-10T08:26:19.981Z,11.68
2022-10-10T08:28:48.915Z,12.18
2022-10-10T08:31:20.393Z,14.07
2022-10-10T08:33:50.260Z,12.98
2022-10-10T08:36:20.761Z,10.82
2022-10-10T08:38:52.739Z,13.82
2022-10-10T08:41:28.549Z,12.15
2022-10-10T08:43:59.183Z,9.73
2022-10-10T08:46:34.899Z,15.27
2022-10-10T08:49:17.253Z,13.27
2022-10-10T08:51:50.952Z,9.15
2022-10-10T08:54:23.419Z,7.47
2022-10-10T08:56:52.217Z,7.75
2022-10-10T08:59:23.097Z,9.75
2022-10-10T09:02:18.213Z,11.40
2022-10-10T09:04:42.537Z,7.38
2022-10-10T09:07:22.578Z,5.22
2022-10-10T09:09:58.521Z,8.63
2022-10-10T09:12:32.883Z,11.10
2022-10-10T09:15:09.966Z,7.20
2022-10-10T09:17:40.941Z,4.47
2022-10-10T09:20:19.762Z,9.40
2022-10-10T09:22:52.987Z,9.13
2022-10-10T09:25:25.681Z,7.13
2022-10-10T09:28:00.410Z,7.88
2022-10-10T09:30:31.377Z,7.55
2022-10-10T09:33:03.226Z,7.93
2022-10-10T09:35:35.978Z,4.95
2022-10-10T09:38:17.927Z,7.15
2022-10-10T09:40:51.309Z,9.10
2022-10-10T09:43:21.801Z,7.55
2022-10-10T09:45:53.597Z,7.32
2022-10-10T09:48:24.191Z,7.05
2022-10-10T09:50:52.904Z,5.05
2022-10-10T09:53:21.657Z,6.40
2022-10-10T09:55:53.752Z,5.47
2022-10-10T09:58:28.153Z,5.47
2022-10-10T10:00:57.537Z,7.45
2022-10-10T10:03:26.601Z,8.20
2022-10-10T10:05:57.423Z,3.42
2022-10-10T10:08:28.475Z,9.95
2022-10-10T10:11:02.002Z,7.50
2022-10-10T10:13:33.156Z,3.67
2022-10-10T10:16:05.071Z,4.85
2022-10-10T10:18:40.283Z,5.22
2022-10-10T10:21:15.629Z,5.22
2022-10-10T10:23:49.247Z,5.05
2022-10-10T10:26:22.736Z,4.22
2022-10-10T10:28:52.657Z,4.07
2022-10-10T10:34:03.645Z,5.03
2022-10-10T10:36:39.291Z,3.38
2022-10-10T10:39:19.313Z,2.80
2022-10-10T10:41:56.096Z,8.40
2022-10-10T10:44:34.996Z,7.70
2022-10-10T10:47:11.276Z,4.35
2022-10-10T10:49:49.706Z,6.15
2022-10-10T10:52:37.231Z,5.53
2022-10-10T10:55:19.397Z,4.30
2022-10-10T10:58:57.956Z,3.33
2022-10-10T11:01:23.568Z,3.92
2022-10-10T11:05:19.086Z,3.53
2022-10-10T11:07:17.812Z,4.43
2022-10-10T11:09:53.965Z,3.67
2022-10-10T11:12:32.758Z,8.15
2022-10-10T11:15:05.253Z,12.13
2022-10-10T11:17:37.966Z,9.13
2022-10-10T11:20:13.699Z,3.17
2022-10-10T11:22:46.297Z,4.40
2022-10-10T11:25:20.459Z,2.33
2022-10-10T11:27:52.542Z,3.50
2022-10-10T11:30:25.049Z,4.32
2022-10-10T11:32:56.650Z,3.33
2022-10-10T11:35:36.408Z,4.03
2022-10-10T11:38:11.886Z,4.37
2022-10-10T11:40:59.146Z,12.25
2022-10-10T11:43:35.073Z,4.68
2022-10-10T11:46:13.047Z,3.47
2022-10-10T11:48:47.132Z,2.78
2022-10-10T11:51:23.045Z,3.78
2022-10-10T11:53:52.548Z,4.93
2022-10-10T11:56:26.896Z,2.10
2022-10-10T11:58:58.845Z,1.85
2022-10-10T12:01:31.053Z,4.07
2022-10-10T12:03:59.727Z,5.63
2022-10-10T12:06:33.535Z,3.53
2022-10-10T12:09:05.244Z,5.10
2022-10-10T12:11:38.004Z,3.38
2022-10-10T12:14:10.180Z,7.03
2022-10-10T12:16:40.062Z,3.55
2022-10-10T12:21:58.052Z,3.47
2022-10-10T12:24:27.727Z,2.97
2022-10-10T12:27:29.585Z,3.15
2022-10-10T12:30:26.027Z,2.45
2022-10-10T12:32:56.607Z,3.35
2022-10-10T12:35:34.334Z,4.20
2022-10-10T12:38:24.253Z,18.20
2022-10-10T12:41:14.400Z,7.50
2022-10-10T12:43:46.257Z,8.95
2022-10-10T12:46:31.814Z,5.35
2022-10-10T12:49:17.998Z,6.63
2022-10-10T12:52:01.613Z,2.47
2022-10-10T12:54:33.332Z,3.53
2022-10-10T12:57:14.964Z,2.97
2022-10-10T12:59:44.129Z,3.85
2022-10-10T13:02:19.604Z,3.97
2022-10-10T13:04:50.428Z,5.35
2022-10-10T13:07:21.043Z,5.10
2022-10-10T13:09:51.212Z,4.32
2022-10-10T13:14:52.110Z,4.18
2022-10-10T13:17:26.059Z,6.25
2022-10-10T13:20:01.396Z,5.40
2022-10-10T13:22:31.623Z,10.95
2022-10-10T13:25:05.193Z,4.95
2022-10-10T13:27:35.460Z,3.35
2022-10-10T13:32:34.245Z,3.53
2022-10-10T13:37:36.068Z,3.40
2022-10-10T13:40:05.297Z,2.75
2022-10-10T13:42:35.925Z,7.35
2022-10-10T13:45:30.922Z,6.93
2022-10-10T13:48:19.206Z,9.15
2022-10-10T13:51:04.617Z,2.83
2022-10-10T13:53:35.786Z,3.97
2022-10-10T13:56:08.109Z,5.75
2022-10-10T13:58:42.525Z,3.15
2022-10-10T14:01:33.422Z,7.32
2022-10-10T14:04:06.781Z,6.65
2022-10-10T14:06:37.305Z,5.35
2022-10-10T14:09:10.962Z,6.65
2022-10-10T14:11:42.204Z,4.18
2022-10-10T14:14:18.671Z,3.75
2022-10-10T14:16:47.152Z,2.42
2022-10-10T14:19:18.543Z,4.00
2022-10-10T14:21:48.680Z,3.90
2022-10-10T14:26:45.978Z,4.63
2022-10-10T14:29:15.874Z,5.00
2022-10-10T14:31:45.547Z,3.17
2022-10-10T14:34:15.248Z,5.70
2022-10-10T14:36:48.853Z,5.53
2022-10-10T14:39:19.084Z,3.17
2022-10-10T14:41:47.885Z,7.43
2022-10-10T14:44:16.781Z,7.75
2022-10-10T14:46:45.299Z,6.47
2022-10-10T14:49:19.757Z,3.53
2022-10-10T14:51:50.054Z,2.15
2022-10-10T14:54:18.782Z,10.18
2022-10-10T14:57:07.644Z,3.72
2022-10-10T14:59:48.477Z,5.78
2022-10-10T15:02:20.654Z,6.68
2022-10-10T15:07:20.845Z,9.03
2022-10-10T15:10:31.624Z,5.35
2022-10-10T15:12:41.593Z,2.70
2022-10-10T15:15:11.992Z,4.78
2022-10-10T15:17:42.245Z,4.60
2022-10-10T15:20:12.823Z,3.97
2022-10-10T15:22:43.023Z,6.93
2022-10-10T15:25:11.730Z,5.35
2022-10-10T15:27:40.615Z,6.00
2022-10-10T15:30:12.314Z,9.30
2022-10-10T15:32:41.701Z,8.82
2022-10-10T15:35:13.931Z,11.63
2022-10-10T15:37:44.251Z,9.27
2022-10-10T15:40:14.453Z,9.30
2022-10-10T15:42:43.295Z,10.20
2022-10-10T15:45:12.207Z,35.00
2022-10-10T15:47:46.441Z,18.95
2022-10-10T15:50:15.703Z,13.65
2022-10-10T15:52:45.902Z,15.10
2022-10-10T15:55:14.828Z,17.45
2022-10-10T15:57:43.601Z,17.80
2022-10-10T16:00:13.441Z,14.43
2022-10-10T16:02:42.166Z,11.15
2022-10-10T16:05:11.438Z,10.30
2022-10-10T16:07:48.022Z,9.77
2022-10-10T16:10:18.463Z,7.95
2022-10-10T16:12:47.157Z,5.28
2022-10-10T16:15:15.968Z,9.13
2022-10-10T16:17:45.232Z,11.57
2022-10-10T16:20:14.013Z,13.15
2022-10-10T16:22:42.400Z,16.08
2022-10-10T16:25:26.810Z,15.93
2022-10-10T16:27:56.930Z,10.75
2022-10-10T16:30:25.700Z,16.48
2022-10-10T16:32:54.396Z,12.98
2022-10-10T16:35:23.202Z,9.65
2022-10-10T16:37:51.512Z,9.25
2022-10-10T16:40:20.343Z,14.10
2022-10-10T16:42:49.014Z,10.95
2022-10-10T16:45:19.318Z,7.55
2022-10-10T16:47:48.019Z,12.68
2022-10-10T16:50:17.016Z,12.93
2022-10-10T16:52:46.005Z,12.77
2022-10-10T16:55:14.792Z,8.52
2022-10-10T16:57:43.488Z,10.52
2022-10-10T17:00:12.799Z,15.45
2022-10-10T17:02:43.295Z,16.38
2022-10-10T17:07:40.220Z,11.05
2022-10-10T17:10:09.953Z,15.23
2022-10-10T17:12:38.771Z,12.45
2022-10-10T17:15:08.810Z,16.77
2022-10-10T17:17:37.982Z,12.68
2022-10-10T17:20:08.912Z,13.82
2022-10-10T17:22:38.155Z,12.05
2022-10-10T17:25:08.023Z,15.27
2022-10-10T17:27:37.730Z,12.75
2022-10-10T17:30:09.850Z,13.98
2022-10-10T17:32:39.054Z,17.10
2022-10-10T17:35:10.031Z,14.32
2022-10-10T17:37:38.704Z,10.95
2022-10-10T17:40:08.429Z,16.48
2022-10-10T17:42:39.767Z,14.85
2022-10-10T17:45:09.851Z,12.15
2022-10-10T17:47:41.252Z,16.63
2022-10-10T17:50:13.569Z,17.75
2022-10-10T17:52:42.305Z,14.88
2022-10-10T17:55:11.121Z,25.35
2022-10-10T17:57:39.952Z,22.80
2022-10-10T18:00:09.925Z,16.33
2022-10-10T18:02:38.637Z,14.93
2022-10-10T18:05:07.778Z,17.88
2022-10-10T18:07:37.688Z,22.25
2022-10-10T18:10:07.081Z,20.33
2022-10-10T18:12:35.810Z,17.55
2022-10-10T18:15:05.395Z,17.65
2022-10-10T18:17:34.228Z,14.32
2022-10-10T18:20:03.174Z,20.90
2022-10-10T18:22:31.539Z,19.90
2022-10-10T18:25:01.707Z,18.27
2022-10-10T18:27:30.362Z,25.00
2022-10-10T18:29:59.167Z,23.38
2022-10-10T18:32:27.909Z,20.20
2022-10-10T18:34:56.766Z,24.83
2022-10-10T18:37:25.479Z,19.58
2022-10-10T18:39:54.151Z,21.63
2022-10-10T18:42:24.230Z,14.70
2022-10-10T18:44:52.902Z,21.45
2022-10-10T18:47:21.749Z,16.27
2022-10-10T18:49:50.065Z,21.15
2022-10-10T18:52:18.749Z,14.50
2022-10-10T18:54:47.862Z,20.35
2022-10-10T18:57:16.695Z,17.52
2022-10-10T18:59:46.816Z,16.50
2022-10-10T19:02:15.436Z,16.63
2022-10-10T19:04:45.108Z,22.65
2022-10-10T19:07:13.865Z,21.02
2022-10-10T19:09:42.619Z,22.38
2022-10-10T19:12:11.312Z,20.38
2022-10-10T19:14:40.229Z,22.02
2022-10-10T19:17:10.819Z,19.58
2022-10-10T19:19:39.435Z,22.08
2022-10-10T19:22:08.180Z,27.52
2022-10-10T19:24:36.865Z,20.13
2022-10-10T19:27:05.666Z,22.92
2022-10-10T19:29:34.688Z,22.08
2022-10-10T19:32:03.381Z,21.80
2022-10-10T19:34:33.354Z,20.25
2022-10-10T19:39:30.833Z,22.63
2022-10-10T19:41:59.614Z,21.67
2022-10-10T19:44:28.346Z,34.60
2022-10-10T19:46:57.087Z,25.10
2022-10-10T19:49:25.403Z,26.25
2022-10-10T19:51:55.630Z,24.35
2022-10-10T19:54:24.304Z,27.50
2022-10-10T19:56:53.016Z,19.63
2022-10-10T19:59:21.821Z,21.65
2022-10-10T20:01:50.317Z,20.70
2022-10-10T20:04:19.109Z,22.80
2022-10-10T20:06:48.574Z,21.40
2022-10-10T20:09:18.782Z,22.90
2022-10-10T20:11:47.626Z,27.88
2022-10-10T20:14:16.311Z,23.33
2022-10-10T20:16:44.790Z,28.65
2022-10-10T20:19:13.684Z,21.40
2022-10-10T20:21:42.957Z,28.90
2022-10-10T20:24:11.942Z,22.70
2022-10-10T20:26:42.099Z,33.00
2022-10-10T20:29:11.049Z,31.25
2022-10-10T20:31:39.486Z,29.00
2022-10-10T20:34:08.527Z,25.05
2022-10-10T20:36:39.256Z,29.98
2022-10-10T20:39:09.872Z,28.40
2022-10-10T20:41:39.090Z,27.10
2022-10-10T20:44:12.486Z,30.77
2022-10-10T20:46:42.193Z,29.05
2022-10-10T20:49:14.616Z,32.97
2022-10-10T20:51:48.384Z,31.45
2022-10-10T20:54:18.234Z,26.77
2022-10-10T20:56:46.902Z,30.08
2022-10-10T20:59:18.873Z,24.23
2022-10-10T21:01:47.470Z,30.02
2022-10-10T21:04:16.245Z,37.00
2022-10-10T21:06:45.077Z,30.52
2022-10-10T21:09:15.686Z,27.65
2022-10-10T21:11:48.658Z,38.33
2022-10-10T21:14:20.951Z,27.08
2022-10-10T21:16:50.832Z,30.60
2022-10-10T21:19:19.961Z,29.85
2022-10-10T21:21:48.858Z,24.63
2022-10-10T21:24:17.742Z,20.95
2022-10-10T21:26:49.179Z,19.27
2022-10-10T21:29:18.224Z,18.58
2022-10-10T21:31:47.918Z,24.15
2022-10-10T21:34:18.955Z,14.27
2022-10-10T21:36:48.396Z,23.33
2022-10-10T21:39:17.134Z,22.80
2022-10-10T21:41:45.881Z,31.95
2022-10-10T21:44:15.964Z,21.23
2022-10-10T21:46:44.415Z,25.75
2022-10-10T21:49:14.513Z,23.45
2022-10-10T21:51:45.720Z,22.67
2022-10-10T21:54:14.718Z,20.27
2022-10-10T21:56:43.643Z,19.40
2022-10-10T21:59:12.761Z,17.10
2022-10-10T22:01:41.116Z,21.27
2022-10-10T22:04:10.937Z,20.67
2022-10-10T22:06:40.997Z,21.05
2022-10-10T22:09:09.689Z,21.70
2022-10-10T22:11:38.435Z,16.33
2022-10-10T22:14:07.232Z,19.35
2022-10-10T22:16:36.248Z,20.42
2022-10-10T22:19:05.126Z,18.73
2022-10-10T22:21:35.141Z,16.65
2022-10-10T22:24:07.401Z,15.48
2022-10-10T22:26:36.586Z,18.60
2022-10-10T22:29:05.644Z,25.40
2022-10-10T22:31:37.554Z,20.95
2022-10-10T22:34:06.907Z,17.10
2022-10-10T22:36:36.210Z,24.45
2022-10-10T22:39:07.391Z,17.48
2022-10-10T22:41:36.175Z,15.35
2022-10-10T22:44:04.983Z,15.10
2022-10-10T22:46:33.515Z,16.80
2022-10-10T22:49:02.147Z,27.70
2022-10-10T22:51:31.119Z,18.17
2022-10-10T22:53:59.997Z,17.23
2022-10-10T22:56:30.511Z,29.02
2022-10-10T23:01:27.728Z,15.90
2022-10-10T23:03:59.909Z,18.02
2022-10-10T23:06:29.248Z,21.17
2022-10-10T23:08:58.286Z,15.50
2022-10-10T23:11:26.923Z,18.60
2022-10-10T23:13:56.705Z,21.10
2022-10-10T23:16:25.315Z,14.10
2022-10-10T23:18:54.104Z,14.73
2022-10-10T23:21:22.850Z,15.77
2022-10-10T23:23:52.097Z,12.30
2022-10-10T23:26:20.881Z,17.95
2022-10-10T23:28:50.718Z,19.85
2022-10-10T23:31:20.867Z,22.17
2022-10-10T23:33:49.624Z,17.60
2022-10-10T23:36:18.321Z,19.23
2022-10-10T23:38:47.321Z,22.17
2022-10-10T23:41:16.011Z,13.93
2022-10-10T23:43:44.340Z,19.90
2022-10-10T23:46:13.175Z,15.88
2022-10-10T23:48:43.600Z,17.98
2022-10-10T23:53:40.771Z,13.63
2022-10-10T23:56:09.718Z,14.82
2022-10-10T23:58:38.700Z,21.92
